sensor_id;sensor_type;location;lat;lon;timestamp;temperature;humidity
52321;DHT22;38261;54.090;13.382;2022-09-09T00:00:37;14.30;99.90
52321;DHT22;38261;54.090;13.382;2022-09-09T00:03:57;14.40;99.90
52321;DHT22;38261;54.090;13.382;2022-09-09T00:07:29;14.40;99.90
52321;DHT22;38261;54.090;13.382;2022-09-09T00:09:16;14.50;99.90
52321;DHT22;38261;54.090;13.382;2022-09-09T00:10:39;14.50;99.90
52321;DHT22;38261;54.090;13.382;2022-09-09T00:13:52;14.50;99.90
52321;DHT22;38261;54.090;13.382;2022-09-09T00:15:26;14.50;99.90
52321;DHT22;38261;54.090;13.382;2022-09-09T00:16:54;14.60;99.90
52321;DHT22;38261;54.090;13.382;2022-09-09T00:20:12;14.60;99.90
52321;DHT22;38261;54.090;13.382;2022-09-09T00:21:37;14.60;99.90
52321;DHT22;38261;54.090;13.382;2022-09-09T00:23:17;14.60;99.90
52321;DHT22;38261;54.090;13.382;2022-09-09T00:24:47;14.60;99.90
52321;DHT22;38261;54.090;13.382;2022-09-09T00:27:50;14.60;99.90
52321;DHT22;38261;54.090;13.382;2022-09-09T00:30:41;14.60;99.90
52321;DHT22;38261;54.090;13.382;2022-09-09T00:32:19;14.60;99.90
52321;DHT22;38261;54.090;13.382;2022-09-09T00:33:43;14.60;99.90
52321;DHT22;38261;54.090;13.382;2022-09-09T00:35:51;14.60;99.90
52321;DHT22;38261;54.090;13.382;2022-09-09T00:37:04;14.60;99.90
52321;DHT22;38261;54.090;13.382;2022-09-09T00:38:49;14.60;99.90
52321;DHT22;38261;54.090;13.382;2022-09-09T00:40:32;14.60;99.90
52321;DHT22;38261;54.090;13.382;2022-09-09T00:42:17;14.60;99.90
52321;DHT22;38261;54.090;13.382;2022-09-09T00:43:41;14.70;99.90
52321;DHT22;38261;54.090;13.382;2022-09-09T00:45:23;14.60;99.90
52321;DHT22;38261;54.090;13.382;2022-09-09T00:48:48;14.70;99.90
52321;DHT22;38261;54.090;13.382;2022-09-09T00:53:41;14.70;99.90
52321;DHT22;38261;54.090;13.382;2022-09-09T00:57:22;14.70;99.90
52321;DHT22;38261;54.090;13.382;2022-09-09T00:59:00;14.70;99.90
52321;DHT22;38261;54.090;13.382;2022-09-09T01:00:40;14.70;99.90
52321;DHT22;38261;54.090;13.382;2022-09-09T01:02:16;14.70;99.90
52321;DHT22;38261;54.090;13.382;2022-09-09T01:03:55;14.60;99.90
52321;DHT22;38261;54.090;13.382;2022-09-09T01:07:27;14.70;99.90
52321;DHT22;38261;54.090;13.382;2022-09-09T01:12:15;14.60;99.90
52321;DHT22;38261;54.090;13.382;2022-09-09T01:13:38;14.60;99.90
52321;DHT22;38261;54.090;13.382;2022-09-09T01:16:32;14.60;99.90
52321;DHT22;38261;54.090;13.382;2022-09-09T01:19:55;14.60;99.90
52321;DHT22;38261;54.090;13.382;2022-09-09T01:21:25;14.60;99.90
52321;DHT22;38261;54.090;13.382;2022-09-09T01:23:04;14.60;99.90
52321;DHT22;38261;54.090;13.382;2022-09-09T01:25:20;14.60;99.90
52321;DHT22;38261;54.090;13.382;2022-09-09T01:28:00;14.60;99.90
52321;DHT22;38261;54.090;13.382;2022-09-09T01:29:24;14.60;99.90
52321;DHT22;38261;54.090;13.382;2022-09-09T01:30:46;14.60;99.90
52321;DHT22;38261;54.090;13.382;2022-09-09T01:32:39;14.60;99.90
52321;DHT22;38261;54.090;13.382;2022-09-09T01:34:02;14.50;99.90
52321;DHT22;38261;54.090;13.382;2022-09-09T01:35:45;14.50;99.90
52321;DHT22;38261;54.090;13.382;2022-09-09T01:37:11;14.50;99.90
52321;DHT22;38261;54.090;13.382;2022-09-09T01:38:34;14.50;99.90
52321;DHT22;38261;54.090;13.382;2022-09-09T01:39:57;14.50;99.90
52321;DHT22;38261;54.090;13.382;2022-09-09T01:41:19;14.50;99.90
52321;DHT22;38261;54.090;13.382;2022-09-09T01:42:42;14.40;99.90
52321;DHT22;38261;54.090;13.382;2022-09-09T01:44:05;14.40;99.90
52321;DHT22;38261;54.090;13.382;2022-09-09T01:45:28;14.40;99.90
52321;DHT22;38261;54.090;13.382;2022-09-09T01:46:50;14.40;99.90
52321;DHT22;38261;54.090;13.382;2022-09-09T01:48:12;14.40;99.90
52321;DHT22;38261;54.090;13.382;2022-09-09T01:49:34;14.40;99.90
52321;DHT22;38261;54.090;13.382;2022-09-09T01:50:56;14.40;99.90
52321;DHT22;38261;54.090;13.382;2022-09-09T01:52:18;14.40;99.90
52321;DHT22;38261;54.090;13.382;2022-09-09T01:53:41;14.40;99.90
52321;DHT22;38261;54.090;13.382;2022-09-09T01:55:05;14.40;99.90
52321;DHT22;38261;54.090;13.382;2022-09-09T02:00:05;14.50;99.90
52321;DHT22;38261;54.090;13.382;2022-09-09T02:03:06;14.50;99.90
52321;DHT22;38261;54.090;13.382;2022-09-09T02:04:38;14.60;99.90
52321;DHT22;38261;54.090;13.382;2022-09-09T02:07:38;14.50;99.90
52321;DHT22;38261;54.090;13.382;2022-09-09T02:09:06;14.60;99.90
52321;DHT22;38261;54.090;13.382;2022-09-09T02:10:35;14.60;99.90
52321;DHT22;38261;54.090;13.382;2022-09-09T02:12:05;14.60;99.90
52321;DHT22;38261;54.090;13.382;2022-09-09T02:13:31;14.60;99.90
52321;DHT22;38261;54.090;13.382;2022-09-09T02:15:07;14.70;99.90
52321;DHT22;38261;54.090;13.382;2022-09-09T02:16:50;14.60;99.90
52321;DHT22;38261;54.090;13.382;2022-09-09T02:18:15;14.70;99.90
52321;DHT22;38261;54.090;13.382;2022-09-09T02:19:44;14.70;99.90
52321;DHT22;38261;54.090;13.382;2022-09-09T02:21:11;14.70;99.90
52321;DHT22;38261;54.090;13.382;2022-09-09T02:22:34;14.70;99.90
52321;DHT22;38261;54.090;13.382;2022-09-09T02:23:59;14.70;99.90
52321;DHT22;38261;54.090;13.382;2022-09-09T02:25:28;14.70;99.90
52321;DHT22;38261;54.090;13.382;2022-09-09T02:26:53;14.70;99.90
52321;DHT22;38261;54.090;13.382;2022-09-09T02:28:18;14.70;99.90
52321;DHT22;38261;54.090;13.382;2022-09-09T02:29:43;14.70;99.90
52321;DHT22;38261;54.090;13.382;2022-09-09T02:31:06;14.70;99.90
52321;DHT22;38261;54.090;13.382;2022-09-09T02:32:30;14.70;99.90
52321;DHT22;38261;54.090;13.382;2022-09-09T02:33:57;14.70;99.90
52321;DHT22;38261;54.090;13.382;2022-09-09T02:35:23;14.70;99.90
52321;DHT22;38261;54.090;13.382;2022-09-09T02:36:46;14.70;99.90
52321;DHT22;38261;54.090;13.382;2022-09-09T02:38:12;14.70;99.90
52321;DHT22;38261;54.090;13.382;2022-09-09T02:39:35;14.70;99.90
52321;DHT22;38261;54.090;13.382;2022-09-09T02:40:57;14.70;99.90
52321;DHT22;38261;54.090;13.382;2022-09-09T02:42:20;14.70;99.90
52321;DHT22;38261;54.090;13.382;2022-09-09T02:43:42;14.80;99.90
52321;DHT22;38261;54.090;13.382;2022-09-09T02:45:05;14.70;99.90
52321;DHT22;38261;54.090;13.382;2022-09-09T02:48:34;14.70;99.90
52321;DHT22;38261;54.090;13.382;2022-09-09T02:53:17;14.70;99.90
52321;DHT22;38261;54.090;13.382;2022-09-09T02:54:39;14.70;99.90
52321;DHT22;38261;54.090;13.382;2022-09-09T02:56:09;14.70;99.90
52321;DHT22;38261;54.090;13.382;2022-09-09T02:57:35;14.80;99.90
52321;DHT22;38261;54.090;13.382;2022-09-09T02:58:58;14.80;99.90
52321;DHT22;38261;54.090;13.382;2022-09-09T03:00:27;14.80;99.90
52321;DHT22;38261;54.090;13.382;2022-09-09T03:01:49;14.80;99.90
52321;DHT22;38261;54.090;13.382;2022-09-09T03:03:12;14.80;99.90
52321;DHT22;38261;54.090;13.382;2022-09-09T03:04:34;14.80;99.90
52321;DHT22;38261;54.090;13.382;2022-09-09T03:05:56;14.80;99.90
52321;DHT22;38261;54.090;13.382;2022-09-09T03:07:19;14.80;99.90
52321;DHT22;38261;54.090;13.382;2022-09-09T03:08:41;14.70;99.90
52321;DHT22;38261;54.090;13.382;2022-09-09T03:10:10;14.80;99.90
52321;DHT22;38261;54.090;13.382;2022-09-09T03:11:32;14.80;99.90
52321;DHT22;38261;54.090;13.382;2022-09-09T03:12:54;14.80;99.90
52321;DHT22;38261;54.090;13.382;2022-09-09T03:14:17;14.70;99.90
52321;DHT22;38261;54.090;13.382;2022-09-09T03:15:43;14.70;99.90
52321;DHT22;38261;54.090;13.382;2022-09-09T03:17:06;14.80;99.90
52321;DHT22;38261;54.090;13.382;2022-09-09T03:18:28;14.80;99.90
52321;DHT22;38261;54.090;13.382;2022-09-09T03:19:50;14.80;99.90
52321;DHT22;38261;54.090;13.382;2022-09-09T03:21:14;14.80;99.90
52321;DHT22;38261;54.090;13.382;2022-09-09T03:22:36;14.80;99.90
52321;DHT22;38261;54.090;13.382;2022-09-09T03:23:58;14.80;99.90
52321;DHT22;38261;54.090;13.382;2022-09-09T03:25:21;14.80;99.90
52321;DHT22;38261;54.090;13.382;2022-09-09T03:26:45;14.80;99.90
52321;DHT22;38261;54.090;13.382;2022-09-09T03:28:07;14.80;99.90
52321;DHT22;38261;54.090;13.382;2022-09-09T03:29:29;14.90;99.90
52321;DHT22;38261;54.090;13.382;2022-09-09T03:30:51;14.90;99.90
52321;DHT22;38261;54.090;13.382;2022-09-09T03:32:13;14.90;99.90
52321;DHT22;38261;54.090;13.382;2022-09-09T03:33:39;14.90;99.90
52321;DHT22;38261;54.090;13.382;2022-09-09T03:35:03;14.90;99.90
52321;DHT22;38261;54.090;13.382;2022-09-09T03:36:26;14.90;99.90
52321;DHT22;38261;54.090;13.382;2022-09-09T03:37:48;14.90;99.90
52321;DHT22;38261;54.090;13.382;2022-09-09T03:39:11;14.90;99.90
52321;DHT22;38261;54.090;13.382;2022-09-09T03:40:33;14.90;99.90
52321;DHT22;38261;54.090;13.382;2022-09-09T03:41:55;14.90;99.90
52321;DHT22;38261;54.090;13.382;2022-09-09T03:43:17;14.90;99.90
52321;DHT22;38261;54.090;13.382;2022-09-09T03:44:39;14.90;99.90
52321;DHT22;38261;54.090;13.382;2022-09-09T03:46:01;14.90;99.90
52321;DHT22;38261;54.090;13.382;2022-09-09T03:47:23;14.90;99.90
52321;DHT22;38261;54.090;13.382;2022-09-09T03:48:45;14.90;99.90
52321;DHT22;38261;54.090;13.382;2022-09-09T03:50:08;14.90;99.90
52321;DHT22;38261;54.090;13.382;2022-09-09T03:51:32;14.90;99.90
52321;DHT22;38261;54.090;13.382;2022-09-09T03:52:57;14.90;99.90
52321;DHT22;38261;54.090;13.382;2022-09-09T03:54:19;14.90;99.90
52321;DHT22;38261;54.090;13.382;2022-09-09T03:56:00;14.90;99.90
52321;DHT22;38261;54.090;13.382;2022-09-09T03:57:22;14.90;99.90
52321;DHT22;38261;54.090;13.382;2022-09-09T03:58:44;14.90;99.90
52321;DHT22;38261;54.090;13.382;2022-09-09T04:00:07;14.90;99.90
52321;DHT22;38261;54.090;13.382;2022-09-09T04:01:30;14.90;99.90
52321;DHT22;38261;54.090;13.382;2022-09-09T04:02:52;14.90;99.90
52321;DHT22;38261;54.090;13.382;2022-09-09T04:04:15;14.90;99.90
52321;DHT22;38261;54.090;13.382;2022-09-09T04:05:39;14.90;99.90
52321;DHT22;38261;54.090;13.382;2022-09-09T04:07:04;14.80;99.90
52321;DHT22;38261;54.090;13.382;2022-09-09T04:08:29;14.80;99.90
52321;DHT22;38261;54.090;13.382;2022-09-09T04:09:53;14.90;99.90
52321;DHT22;38261;54.090;13.382;2022-09-09T04:11:16;14.90;99.90
52321;DHT22;38261;54.090;13.382;2022-09-09T04:12:38;14.90;99.90
52321;DHT22;38261;54.090;13.382;2022-09-09T04:14:08;14.80;99.90
52321;DHT22;38261;54.090;13.382;2022-09-09T04:15:31;14.90;99.90
52321;DHT22;38261;54.090;13.382;2022-09-09T04:16:53;14.90;99.90
52321;DHT22;38261;54.090;13.382;2022-09-09T04:18:15;14.90;99.90
52321;DHT22;38261;54.090;13.382;2022-09-09T04:19:40;14.90;99.90
52321;DHT22;38261;54.090;13.382;2022-09-09T04:21:04;14.90;99.90
52321;DHT22;38261;54.090;13.382;2022-09-09T04:22:28;14.90;99.90
52321;DHT22;38261;54.090;13.382;2022-09-09T04:23:50;14.90;99.90
52321;DHT22;38261;54.090;13.382;2022-09-09T04:25:13;14.90;99.90
52321;DHT22;38261;54.090;13.382;2022-09-09T04:26:36;14.90;99.90
52321;DHT22;38261;54.090;13.382;2022-09-09T04:27:58;14.90;99.90
52321;DHT22;38261;54.090;13.382;2022-09-09T04:29:20;14.90;99.90
52321;DHT22;38261;54.090;13.382;2022-09-09T04:30:43;14.90;99.90
52321;DHT22;38261;54.090;13.382;2022-09-09T04:32:05;14.90;99.90
52321;DHT22;38261;54.090;13.382;2022-09-09T04:33:27;14.90;99.90
52321;DHT22;38261;54.090;13.382;2022-09-09T04:34:49;14.90;99.90
52321;DHT22;38261;54.090;13.382;2022-09-09T04:36:11;14.90;99.90
52321;DHT22;38261;54.090;13.382;2022-09-09T04:37:34;14.90;99.90
52321;DHT22;38261;54.090;13.382;2022-09-09T04:38:56;14.90;99.90
52321;DHT22;38261;54.090;13.382;2022-09-09T04:40:18;14.90;99.90
52321;DHT22;38261;54.090;13.382;2022-09-09T04:41:40;14.90;99.90
52321;DHT22;38261;54.090;13.382;2022-09-09T04:43:03;14.90;99.90
52321;DHT22;38261;54.090;13.382;2022-09-09T04:44:26;14.90;99.90
52321;DHT22;38261;54.090;13.382;2022-09-09T04:45:50;14.90;99.90
52321;DHT22;38261;54.090;13.382;2022-09-09T04:47:13;14.90;99.90
52321;DHT22;38261;54.090;13.382;2022-09-09T04:48:36;14.90;99.90
52321;DHT22;38261;54.090;13.382;2022-09-09T04:49:58;14.90;99.90
52321;DHT22;38261;54.090;13.382;2022-09-09T04:51:20;14.90;99.90
52321;DHT22;38261;54.090;13.382;2022-09-09T04:52:42;15.00;99.90
52321;DHT22;38261;54.090;13.382;2022-09-09T04:54:04;15.00;99.90
52321;DHT22;38261;54.090;13.382;2022-09-09T04:55:27;15.00;99.90
52321;DHT22;38261;54.090;13.382;2022-09-09T04:56:50;15.00;99.90
52321;DHT22;38261;54.090;13.382;2022-09-09T04:58:12;15.00;99.90
52321;DHT22;38261;54.090;13.382;2022-09-09T04:59:35;15.00;99.90
52321;DHT22;38261;54.090;13.382;2022-09-09T05:01:07;15.10;99.90
52321;DHT22;38261;54.090;13.382;2022-09-09T05:02:30;15.10;99.90
52321;DHT22;38261;54.090;13.382;2022-09-09T05:03:52;15.10;99.90
52321;DHT22;38261;54.090;13.382;2022-09-09T05:05:15;15.10;99.90
52321;DHT22;38261;54.090;13.382;2022-09-09T05:06:37;15.10;99.90
52321;DHT22;38261;54.090;13.382;2022-09-09T05:08:03;15.10;99.90
52321;DHT22;38261;54.090;13.382;2022-09-09T05:09:26;15.10;99.90
52321;DHT22;38261;54.090;13.382;2022-09-09T05:10:48;15.10;99.90
52321;DHT22;38261;54.090;13.382;2022-09-09T05:12:10;15.20;99.90
52321;DHT22;38261;54.090;13.382;2022-09-09T05:13:32;15.20;99.90
52321;DHT22;38261;54.090;13.382;2022-09-09T05:15:00;15.20;99.90
52321;DHT22;38261;54.090;13.382;2022-09-09T05:16:22;15.20;99.90
52321;DHT22;38261;54.090;13.382;2022-09-09T05:17:44;15.30;99.90
52321;DHT22;38261;54.090;13.382;2022-09-09T05:19:06;15.30;99.90
52321;DHT22;38261;54.090;13.382;2022-09-09T05:20:30;15.30;99.90
52321;DHT22;38261;54.090;13.382;2022-09-09T05:21:53;15.30;99.90
52321;DHT22;38261;54.090;13.382;2022-09-09T05:23:15;15.30;99.90
52321;DHT22;38261;54.090;13.382;2022-09-09T05:24:38;15.30;99.90
52321;DHT22;38261;54.090;13.382;2022-09-09T05:26:01;15.30;99.90
52321;DHT22;38261;54.090;13.382;2022-09-09T05:27:23;15.40;99.90
52321;DHT22;38261;54.090;13.382;2022-09-09T05:28:45;15.40;99.90
52321;DHT22;38261;54.090;13.382;2022-09-09T05:30:08;15.50;99.90
52321;DHT22;38261;54.090;13.382;2022-09-09T05:31:30;15.50;99.90
52321;DHT22;38261;54.090;13.382;2022-09-09T05:32:56;15.50;99.90
52321;DHT22;38261;54.090;13.382;2022-09-09T05:34:18;15.60;99.90
52321;DHT22;38261;54.090;13.382;2022-09-09T05:35:41;15.60;99.90
52321;DHT22;38261;54.090;13.382;2022-09-09T05:37:03;15.60;99.90
52321;DHT22;38261;54.090;13.382;2022-09-09T05:38:26;15.60;99.90
52321;DHT22;38261;54.090;13.382;2022-09-09T05:39:49;15.60;99.90
52321;DHT22;38261;54.090;13.382;2022-09-09T05:41:13;15.70;99.90
52321;DHT22;38261;54.090;13.382;2022-09-09T05:42:37;15.70;99.90
52321;DHT22;38261;54.090;13.382;2022-09-09T05:44:01;15.70;99.90
52321;DHT22;38261;54.090;13.382;2022-09-09T05:45:23;15.80;99.90
52321;DHT22;38261;54.090;13.382;2022-09-09T05:46:45;15.80;99.90
52321;DHT22;38261;54.090;13.382;2022-09-09T05:48:07;15.90;99.90
52321;DHT22;38261;54.090;13.382;2022-09-09T05:49:29;15.90;99.90
52321;DHT22;38261;54.090;13.382;2022-09-09T05:50:54;16.00;99.90
52321;DHT22;38261;54.090;13.382;2022-09-09T05:52:16;16.00;99.90
52321;DHT22;38261;54.090;13.382;2022-09-09T05:53:38;16.10;99.90
52321;DHT22;38261;54.090;13.382;2022-09-09T05:55:00;16.10;99.90
52321;DHT22;38261;54.090;13.382;2022-09-09T05:56:24;16.10;99.90
52321;DHT22;38261;54.090;13.382;2022-09-09T05:57:50;16.20;99.90
52321;DHT22;38261;54.090;13.382;2022-09-09T05:59:13;16.20;99.90
52321;DHT22;38261;54.090;13.382;2022-09-09T06:00:36;16.20;99.90
52321;DHT22;38261;54.090;13.382;2022-09-09T06:01:59;16.20;99.90
52321;DHT22;38261;54.090;13.382;2022-09-09T06:03:21;16.30;99.90
52321;DHT22;38261;54.090;13.382;2022-09-09T06:04:45;16.20;99.90
52321;DHT22;38261;54.090;13.382;2022-09-09T06:06:10;16.20;99.90
52321;DHT22;38261;54.090;13.382;2022-09-09T06:07:32;16.30;99.90
52321;DHT22;38261;54.090;13.382;2022-09-09T06:08:55;16.30;99.90
52321;DHT22;38261;54.090;13.382;2022-09-09T06:10:21;16.30;99.90
52321;DHT22;38261;54.090;13.382;2022-09-09T06:11:43;16.30;99.90
52321;DHT22;38261;54.090;13.382;2022-09-09T06:13:05;16.30;99.90
52321;DHT22;38261;54.090;13.382;2022-09-09T06:14:27;16.30;99.90
52321;DHT22;38261;54.090;13.382;2022-09-09T06:15:52;16.40;99.90
52321;DHT22;38261;54.090;13.382;2022-09-09T06:17:15;16.40;99.90
52321;DHT22;38261;54.090;13.382;2022-09-09T06:18:41;16.40;99.90
52321;DHT22;38261;54.090;13.382;2022-09-09T06:20:03;16.40;99.90
52321;DHT22;38261;54.090;13.382;2022-09-09T06:21:30;16.40;99.90
52321;DHT22;38261;54.090;13.382;2022-09-09T06:22:52;16.40;99.90
52321;DHT22;38261;54.090;13.382;2022-09-09T06:24:14;16.40;99.90
52321;DHT22;38261;54.090;13.382;2022-09-09T06:25:39;16.40;99.90
52321;DHT22;38261;54.090;13.382;2022-09-09T06:27:02;16.50;99.90
52321;DHT22;38261;54.090;13.382;2022-09-09T06:28:24;16.50;99.90
52321;DHT22;38261;54.090;13.382;2022-09-09T06:29:46;16.50;99.90
52321;DHT22;38261;54.090;13.382;2022-09-09T06:31:12;16.50;99.90
52321;DHT22;38261;54.090;13.382;2022-09-09T06:32:34;16.50;99.90
52321;DHT22;38261;54.090;13.382;2022-09-09T06:33:58;16.60;99.90
52321;DHT22;38261;54.090;13.382;2022-09-09T06:35:20;16.50;99.90
52321;DHT22;38261;54.090;13.382;2022-09-09T06:36:42;16.60;99.90
52321;DHT22;38261;54.090;13.382;2022-09-09T06:38:04;16.60;99.90
52321;DHT22;38261;54.090;13.382;2022-09-09T06:39:27;16.60;99.90
52321;DHT22;38261;54.090;13.382;2022-09-09T06:40:53;16.60;99.90
52321;DHT22;38261;54.090;13.382;2022-09-09T06:42:16;16.70;99.90
52321;DHT22;38261;54.090;13.382;2022-09-09T06:43:39;16.70;99.90
52321;DHT22;38261;54.090;13.382;2022-09-09T06:45:01;16.70;99.90
52321;DHT22;38261;54.090;13.382;2022-09-09T06:46:27;16.80;99.90
52321;DHT22;38261;54.090;13.382;2022-09-09T06:47:54;16.80;99.90
52321;DHT22;38261;54.090;13.382;2022-09-09T06:49:16;16.80;99.90
52321;DHT22;38261;54.090;13.382;2022-09-09T06:50:38;16.90;99.90
52321;DHT22;38261;54.090;13.382;2022-09-09T06:52:01;16.90;99.90
52321;DHT22;38261;54.090;13.382;2022-09-09T06:53:23;17.00;99.90
52321;DHT22;38261;54.090;13.382;2022-09-09T06:54:45;17.00;99.90
52321;DHT22;38261;54.090;13.382;2022-09-09T06:57:38;17.10;99.90
52321;DHT22;38261;54.090;13.382;2022-09-09T06:59:02;17.20;99.90
52321;DHT22;38261;54.090;13.382;2022-09-09T07:00:25;17.30;99.90
52321;DHT22;38261;54.090;13.382;2022-09-09T07:01:47;17.30;99.90
52321;DHT22;38261;54.090;13.382;2022-09-09T07:03:16;17.40;99.90
52321;DHT22;38261;54.090;13.382;2022-09-09T07:04:38;17.40;99.90
52321;DHT22;38261;54.090;13.382;2022-09-09T07:06:00;17.50;99.90
52321;DHT22;38261;54.090;13.382;2022-09-09T07:07:22;17.50;99.90
52321;DHT22;38261;54.090;13.382;2022-09-09T07:08:53;17.50;99.90
52321;DHT22;38261;54.090;13.382;2022-09-09T07:10:17;17.60;99.90
52321;DHT22;38261;54.090;13.382;2022-09-09T07:11:45;17.60;99.90
52321;DHT22;38261;54.090;13.382;2022-09-09T07:13:08;17.60;99.90
52321;DHT22;38261;54.090;13.382;2022-09-09T07:14:31;17.60;99.90
52321;DHT22;38261;54.090;13.382;2022-09-09T07:15:53;17.60;99.90
52321;DHT22;38261;54.090;13.382;2022-09-09T07:17:15;17.60;99.90
52321;DHT22;38261;54.090;13.382;2022-09-09T07:18:37;17.60;99.90
52321;DHT22;38261;54.090;13.382;2022-09-09T07:19:59;17.60;99.90
52321;DHT22;38261;54.090;13.382;2022-09-09T07:21:21;17.60;99.90
52321;DHT22;38261;54.090;13.382;2022-09-09T07:22:43;17.60;99.90
52321;DHT22;38261;54.090;13.382;2022-09-09T07:24:06;17.60;99.90
52321;DHT22;38261;54.090;13.382;2022-09-09T07:25:31;17.70;99.90
52321;DHT22;38261;54.090;13.382;2022-09-09T07:26:53;17.70;99.90
52321;DHT22;38261;54.090;13.382;2022-09-09T07:28:16;17.80;99.90
52321;DHT22;38261;54.090;13.382;2022-09-09T07:29:38;17.90;99.90
52321;DHT22;38261;54.090;13.382;2022-09-09T07:31:01;18.00;99.90
52321;DHT22;38261;54.090;13.382;2022-09-09T07:32:24;18.10;99.90
52321;DHT22;38261;54.090;13.382;2022-09-09T07:33:47;18.10;99.90
52321;DHT22;38261;54.090;13.382;2022-09-09T07:35:10;18.20;99.90
52321;DHT22;38261;54.090;13.382;2022-09-09T07:36:34;18.30;99.90
52321;DHT22;38261;54.090;13.382;2022-09-09T07:37:56;18.50;99.90
52321;DHT22;38261;54.090;13.382;2022-09-09T07:39:19;18.50;99.90
52321;DHT22;38261;54.090;13.382;2022-09-09T07:40:41;18.60;99.90
52321;DHT22;38261;54.090;13.382;2022-09-09T07:42:03;18.70;99.90
52321;DHT22;38261;54.090;13.382;2022-09-09T07:43:26;18.70;99.90
52321;DHT22;38261;54.090;13.382;2022-09-09T07:44:48;18.70;99.90
52321;DHT22;38261;54.090;13.382;2022-09-09T07:46:12;18.80;99.90
52321;DHT22;38261;54.090;13.382;2022-09-09T07:47:34;18.80;99.90
52321;DHT22;38261;54.090;13.382;2022-09-09T07:48:57;18.80;99.90
52321;DHT22;38261;54.090;13.382;2022-09-09T07:50:19;18.80;99.90
52321;DHT22;38261;54.090;13.382;2022-09-09T07:51:44;18.90;99.90
52321;DHT22;38261;54.090;13.382;2022-09-09T07:53:07;18.90;99.90
52321;DHT22;38261;54.090;13.382;2022-09-09T07:54:29;19.00;99.90
52321;DHT22;38261;54.090;13.382;2022-09-09T07:55:51;19.00;99.90
52321;DHT22;38261;54.090;13.382;2022-09-09T07:57:13;19.10;99.90
52321;DHT22;38261;54.090;13.382;2022-09-09T07:58:39;19.10;99.90
52321;DHT22;38261;54.090;13.382;2022-09-09T08:00:03;19.20;99.90
52321;DHT22;38261;54.090;13.382;2022-09-09T08:01:33;19.20;99.90
52321;DHT22;38261;54.090;13.382;2022-09-09T08:02:56;19.30;99.90
52321;DHT22;38261;54.090;13.382;2022-09-09T08:04:18;19.40;99.90
52321;DHT22;38261;54.090;13.382;2022-09-09T08:05:41;19.40;99.90
52321;DHT22;38261;54.090;13.382;2022-09-09T08:07:04;19.50;99.90
52321;DHT22;38261;54.090;13.382;2022-09-09T08:08:28;19.50;99.90
52321;DHT22;38261;54.090;13.382;2022-09-09T08:09:50;19.50;99.90
52321;DHT22;38261;54.090;13.382;2022-09-09T08:11:14;19.50;99.90
52321;DHT22;38261;54.090;13.382;2022-09-09T08:12:36;19.50;99.90
52321;DHT22;38261;54.090;13.382;2022-09-09T08:13:58;19.60;99.90
52321;DHT22;38261;54.090;13.382;2022-09-09T08:15:23;19.50;99.90
52321;DHT22;38261;54.090;13.382;2022-09-09T08:16:47;19.50;99.90
52321;DHT22;38261;54.090;13.382;2022-09-09T08:18:09;19.50;99.90
52321;DHT22;38261;54.090;13.382;2022-09-09T08:19:32;19.50;99.90
52321;DHT22;38261;54.090;13.382;2022-09-09T08:20:57;19.50;99.90
52321;DHT22;38261;54.090;13.382;2022-09-09T08:22:19;19.60;99.90
52321;DHT22;38261;54.090;13.382;2022-09-09T08:23:42;19.60;99.90
52321;DHT22;38261;54.090;13.382;2022-09-09T08:25:05;19.70;99.90
52321;DHT22;38261;54.090;13.382;2022-09-09T08:26:33;19.80;99.90
52321;DHT22;38261;54.090;13.382;2022-09-09T08:27:56;19.90;99.90
52321;DHT22;38261;54.090;13.382;2022-09-09T08:29:18;19.90;99.90
52321;DHT22;38261;54.090;13.382;2022-09-09T08:30:40;20.00;99.90
52321;DHT22;38261;54.090;13.382;2022-09-09T08:32:02;20.10;99.90
52321;DHT22;38261;54.090;13.382;2022-09-09T08:33:24;20.20;99.90
52321;DHT22;38261;54.090;13.382;2022-09-09T08:34:47;20.20;99.90
52321;DHT22;38261;54.090;13.382;2022-09-09T08:36:11;20.30;99.90
52321;DHT22;38261;54.090;13.382;2022-09-09T08:37:33;20.40;99.90
52321;DHT22;38261;54.090;13.382;2022-09-09T08:38:57;20.50;99.90
52321;DHT22;38261;54.090;13.382;2022-09-09T08:40:25;20.60;99.90
52321;DHT22;38261;54.090;13.382;2022-09-09T08:42:13;20.80;99.90
52321;DHT22;38261;54.090;13.382;2022-09-09T08:43:38;20.90;99.90
52321;DHT22;38261;54.090;13.382;2022-09-09T08:46:38;20.80;99.90
52321;DHT22;38261;54.090;13.382;2022-09-09T08:48:41;20.80;99.90
52321;DHT22;38261;54.090;13.382;2022-09-09T08:50:22;20.90;99.90
52321;DHT22;38261;54.090;13.382;2022-09-09T08:51:48;21.00;99.90
52321;DHT22;38261;54.090;13.382;2022-09-09T08:53:22;21.10;99.90
52321;DHT22;38261;54.090;13.382;2022-09-09T08:54:45;21.20;99.90
52321;DHT22;38261;54.090;13.382;2022-09-09T08:56:21;21.40;99.90
52321;DHT22;38261;54.090;13.382;2022-09-09T08:57:44;21.50;99.90
52321;DHT22;38261;54.090;13.382;2022-09-09T08:59:10;21.60;99.90
52321;DHT22;38261;54.090;13.382;2022-09-09T09:06:01;21.70;99.90
52321;DHT22;38261;54.090;13.382;2022-09-09T09:07:49;21.60;99.90
52321;DHT22;38261;54.090;13.382;2022-09-09T09:12:19;21.50;99.90
52321;DHT22;38261;54.090;13.382;2022-09-09T09:14:06;21.50;99.90
52321;DHT22;38261;54.090;13.382;2022-09-09T09:15:27;21.60;99.90
52321;DHT22;38261;54.090;13.382;2022-09-09T09:17:00;21.60;99.90
52321;DHT22;38261;54.090;13.382;2022-09-09T09:18:23;21.70;99.90
52321;DHT22;38261;54.090;13.382;2022-09-09T09:19:46;21.70;99.90
52321;DHT22;38261;54.090;13.382;2022-09-09T09:21:24;21.80;99.90
52321;DHT22;38261;54.090;13.382;2022-09-09T09:22:51;21.80;99.90
52321;DHT22;38261;54.090;13.382;2022-09-09T09:24:25;21.90;99.90
52321;DHT22;38261;54.090;13.382;2022-09-09T09:25:48;22.00;99.90
52321;DHT22;38261;54.090;13.382;2022-09-09T09:27:32;22.00;99.90
52321;DHT22;38261;54.090;13.382;2022-09-09T09:28:56;22.10;99.90
52321;DHT22;38261;54.090;13.382;2022-09-09T09:30:21;22.20;99.90
52321;DHT22;38261;54.090;13.382;2022-09-09T09:31:53;22.40;99.90
52321;DHT22;38261;54.090;13.382;2022-09-09T09:34:58;22.60;99.90
52321;DHT22;38261;54.090;13.382;2022-09-09T09:36:52;22.50;99.90
52321;DHT22;38261;54.090;13.382;2022-09-09T09:38:19;22.50;99.90
52321;DHT22;38261;54.090;13.382;2022-09-09T09:40:14;22.50;99.90
52321;DHT22;38261;54.090;13.382;2022-09-09T09:41:40;22.50;99.90
52321;DHT22;38261;54.090;13.382;2022-09-09T09:43:03;22.60;99.90
52321;DHT22;38261;54.090;13.382;2022-09-09T09:44:31;22.70;99.90